Barter Island Lrrs Airport
PABA : now visible

Airfield :











YOU CAN JOIN US ON...

 
LOGIN :

Register | Disclaimer

   EN    FR    IT 

 









Legend :    VFR   Marginal VFR   IFR   Intensive IFR   Very Intensive IFR
Visi :
Ceiling :
>= 8 km
>= 3000ft
5 to 8 km
1000 to 3000 ft
1500m to 5 km
500 to 1000 ft
800 to 1500m
200 to 500 ft
< 800m
< 200 ft
Symbols :   Thunderstorms  Fog  Heavy snow  Heavy precipitations  Wind > 20 kt






- Airport Elevation : 2 ft
- IATA code : BTI


PABA - Barter Island Lrrs

CURRENT METAR :
  • 311626Z AUTO 09022G29KT 5SM -SN BR OVC008 M01/M02 A3006 RMK AO2 PK WND 08029/1621 SNB15 P0000 FZRANO TSNO

EXPIRED METARs :
  • 311552Z AUTO 09024G27KT 10SM OVC008 M01/M03 A3006 RMK AO2 PK WND 09030/1549 SNE16 SLP187 P0000 T10111028 FZRANO TSNO
  • 311508Z AUTO 09024G28KT 5SM -SN BR OVC008 M01/M02 A3007 RMK AO2 PK WND 09028/1508 P0000 FZRANO TSNO
  • 311457Z AUTO 10018KT 2SM -SN BR OVC008 M01/M02 A3007 RMK AO2 P0000 FZRANO TSNO
  • 311413Z AUTO 09022G27KT 9SM -SN OVC010 M01/M02 A3007 RMK AO2 PK WND 10028/1356 SNB08 CIG 007V012 P0000 FZRANO TSNO
  • 311352Z AUTO 09025KT 10SM OVC006 M02/M03 A3008 RMK AO2 PK WND 09031/1342 SNE35 SLP192 P0000 T10171028 FZRANO TSNO
  • 311329Z AUTO 09026G30KT 4SM -SN BR OVC006 M02/M03 A3008 RMK AO2 PK WND 09030/1328 P0000 FZRANO TSNO
  • 311324Z AUTO 09026G29KT 2SM -SN BR OVC006 M02/M02 A3008 RMK AO2 PK WND 10029/1324 VIS 1 3/4V5 P0000 FZRANO TSNO

Expired Forecast.
PAZA FIR / North America



MET'MAP, your aeronautical weather chart ! - Copyright ORBIFLY December 2007 - Disclaimer

ORBIFLY MET'MAP TEAM :

Programming & Development : Alexandra Zaïnal
Concept & original design : Baudouin d'Aumeries
Assistance for programming : Marc-Olivier Méhu
Technical & hardware support : Manuel Goepfert

Contact : metmap@orbifly.com




SOURCES & CREDITS :

   NOAA       Earth
Advisory